EZY8519 LPPS-LPMA
Flight info
| Callsign | EZY8519 |
|---|---|
| Flight time | 0h 29m |
| Altitude | 5000 |
| Route | PILIM |
| Aircraft | A20N/M-SDE2E3FGHIRWXY/LB1 |
Departure
| Time | 2026-04-16 15:06 |
|---|---|
| Airport | Porto Santo Airport (LPPS) |
Arrival
| Time | 2026-04-16 15:35 |
|---|---|
| Airport | Cristiano Ronaldo International Airport (LPMA) |
| Time | Latitude | Longitude | Altitude | Speed | Heading |
|---|---|---|---|---|---|
| 2026-04-16 14:43 | 33.07225 | -16.34625 | 281 ft | 0 kts | 50° |
| 2026-04-16 14:51 | 33.07218 | -16.34637 | 279 ft | 2 kts | 61° |
| 2026-04-16 14:51 | 33.07212 | -16.34652 | 283 ft | 2 kts | 73° |
| 2026-04-16 14:51 | 33.07210 | -16.34659 | 280 ft | 0 kts | 79° |
| 2026-04-16 14:51 | 33.07210 | -16.34660 | 278 ft | 0 kts | 81° |
| 2026-04-16 14:54 | 33.07210 | -16.34662 | 278 ft | 1 kts | 81° |
| 2026-04-16 14:54 | 33.07207 | -16.34683 | 278 ft | 2 kts | 81° |
| 2026-04-16 14:55 | 33.07206 | -16.34698 | 278 ft | 2 kts | 99° |
| 2026-04-16 14:55 | 33.07212 | -16.34717 | 287 ft | 2 kts | 142° |
| 2026-04-16 14:55 | 33.07224 | -16.34725 | 286 ft | 2 kts | 173° |
| 2026-04-16 14:55 | 33.07225 | -16.34725 | 286 ft | 0 kts | 174° |
| 2026-04-16 14:56 | 33.07226 | -16.34725 | 286 ft | 0 kts | 175° |
| 2026-04-16 15:00 | 33.07210 | -16.34723 | 278 ft | 6 kts | 172° |
| 2026-04-16 15:00 | 33.07198 | -16.34720 | 278 ft | 0 kts | 171° |
| 2026-04-16 15:01 | 33.07195 | -16.34720 | 278 ft | 2 kts | 172° |
| 2026-04-16 15:01 | 33.07174 | -16.34720 | 281 ft | 2 kts | 185° |
| 2026-04-16 15:01 | 33.07129 | -16.34721 | 275 ft | 13 kts | 176° |
| 2026-04-16 15:02 | 33.07070 | -16.34792 | 274 ft | 14 kts | 275° |
| 2026-04-16 15:02 | 33.07071 | -16.34921 | 274 ft | 17 kts | 264° |
| 2026-04-16 15:02 | 33.06992 | -16.34981 | 272 ft | 17 kts | 176° |
| 2026-04-16 15:02 | 33.06858 | -16.34973 | 267 ft | 22 kts | 177° |
| 2026-04-16 15:03 | 33.06680 | -16.34966 | 258 ft | 29 kts | 180° |
| 2026-04-16 15:03 | 33.06467 | -16.34959 | 250 ft | 33 kts | 177° |
| 2026-04-16 15:03 | 33.06404 | -16.34956 | 247 ft | 34 kts | 177° |
| 2026-04-16 15:03 | 33.06375 | -16.34954 | 246 ft | 35 kts | 177° |
| 2026-04-16 15:04 | 33.06219 | -16.34950 | 240 ft | 5 kts | 175° |
| 2026-04-16 15:04 | 33.06177 | -16.34943 | 239 ft | 12 kts | 169° |
| 2026-04-16 15:04 | 33.06087 | -16.34859 | 237 ft | 19 kts | 139° |
| 2026-04-16 15:04 | 33.06028 | -16.34837 | 238 ft | 0 kts | 184° |
| 2026-04-16 15:05 | 33.06004 | -16.34864 | 234 ft | 12 kts | 239° |
| 2026-04-16 15:05 | 33.06021 | -16.34942 | 238 ft | 0 kts | 348° |
| 2026-04-16 15:05 | 33.06022 | -16.34942 | 238 ft | 0 kts | 352° |
| 2026-04-16 15:06 | 33.06093 | -16.34944 | 237 ft | 37 kts | 359° |
| 2026-04-16 15:06 | 33.06642 | -16.34963 | 256 ft | 116 kts | 358° |
| 2026-04-16 15:06 | 33.07593 | -16.34992 | 566 ft | 151 kts | 1° |
| 2026-04-16 15:06 | 33.08707 | -16.35043 | 1205 ft | 168 kts | 360° |
| 2026-04-16 15:07 | 33.09914 | -16.35119 | 1982 ft | 182 kts | 360° |
| 2026-04-16 15:07 | 33.11223 | -16.35195 | 2722 ft | 195 kts | 360° |
| 2026-04-16 15:07 | 33.12643 | -16.35240 | 3315 ft | 217 kts | 1° |
| 2026-04-16 15:07 | 33.14222 | -16.35694 | 3725 ft | 250 kts | 334° |
| 2026-04-16 15:08 | 33.15576 | -16.37094 | 3748 ft | 271 kts | 306° |
| 2026-04-16 15:08 | 33.16276 | -16.39172 | 3713 ft | 276 kts | 278° |
| 2026-04-16 15:08 | 33.16111 | -16.41444 | 3580 ft | 272 kts | 250° |
| 2026-04-16 15:08 | 33.15138 | -16.43333 | 3216 ft | 274 kts | 223° |
| 2026-04-16 15:09 | 33.13511 | -16.44455 | 3032 ft | 268 kts | 192° |
| 2026-04-16 15:09 | 33.11678 | -16.44594 | 3000 ft | 268 kts | 174° |
| 2026-04-16 15:09 | 33.09775 | -16.44567 | 3000 ft | 272 kts | 182° |
| 2026-04-16 15:09 | 33.07939 | -16.44922 | 2999 ft | 268 kts | 193° |
| 2026-04-16 15:10 | 33.06146 | -16.45658 | 2991 ft | 271 kts | 202° |
| 2026-04-16 15:10 | 33.04447 | -16.46607 | 3007 ft | 272 kts | 206° |
| 2026-04-16 15:10 | 33.02755 | -16.47682 | 3010 ft | 274 kts | 208° |
| 2026-04-16 15:10 | 33.01100 | -16.48782 | 3010 ft | 273 kts | 208° |
| 2026-04-16 15:11 | 32.99459 | -16.49880 | 3002 ft | 271 kts | 208° |
| 2026-04-16 15:11 | 32.97798 | -16.50985 | 3002 ft | 271 kts | 208° |
| 2026-04-16 15:11 | 32.96149 | -16.52076 | 2992 ft | 271 kts | 208° |
| 2026-04-16 15:11 | 32.94491 | -16.53168 | 2991 ft | 273 kts | 208° |
| 2026-04-16 15:12 | 32.92834 | -16.54257 | 2995 ft | 274 kts | 208° |
| 2026-04-16 15:12 | 32.91147 | -16.55363 | 3110 ft | 277 kts | 208° |
| 2026-04-16 15:12 | 32.89469 | -16.56462 | 3177 ft | 274 kts | 208° |
| 2026-04-16 15:12 | 32.87798 | -16.57557 | 3174 ft | 274 kts | 208° |
| 2026-04-16 15:13 | 32.86145 | -16.58639 | 3172 ft | 274 kts | 208° |
| 2026-04-16 15:13 | 32.84478 | -16.59782 | 3169 ft | 276 kts | 217° |
| 2026-04-16 15:13 | 32.83246 | -16.61487 | 3165 ft | 272 kts | 245° |
| 2026-04-16 15:13 | 32.82813 | -16.63644 | 3163 ft | 271 kts | 273° |
| 2026-04-16 15:14 | 32.83235 | -16.65785 | 3289 ft | 259 kts | 290° |
| 2026-04-16 15:14 | 32.83570 | -16.67905 | 3444 ft | 263 kts | 271° |
| 2026-04-16 15:14 | 32.83196 | -16.70006 | 3274 ft | 256 kts | 244° |
| 2026-04-16 15:14 | 32.82085 | -16.71653 | 3189 ft | 266 kts | 217° |
| 2026-04-16 15:15 | 32.80389 | -16.72602 | 3154 ft | 273 kts | 191° |
| 2026-04-16 15:15 | 32.78489 | -16.72685 | 3155 ft | 272 kts | 169° |
| 2026-04-16 15:15 | 32.76724 | -16.72020 | 3158 ft | 271 kts | 152° |
| 2026-04-16 15:15 | 32.75133 | -16.70855 | 3158 ft | 260 kts | 141° |
| 2026-04-16 15:16 | 32.73778 | -16.69536 | 3141 ft | 246 kts | 134° |
| 2026-04-16 15:16 | 32.72557 | -16.68196 | 3057 ft | 234 kts | 132° |
| 2026-04-16 15:16 | 32.71405 | -16.66871 | 2999 ft | 223 kts | 131° |
| 2026-04-16 15:16 | 32.70155 | -16.65876 | 2940 ft | 218 kts | 160° |
| 2026-04-16 15:17 | 32.68704 | -16.65599 | 2888 ft | 209 kts | 182° |
| 2026-04-16 15:17 | 32.67327 | -16.66059 | 2752 ft | 203 kts | 205° |
| 2026-04-16 15:17 | 32.66287 | -16.67170 | 2455 ft | 202 kts | 235° |
| 2026-04-16 15:17 | 32.65469 | -16.68501 | 2210 ft | 201 kts | 236° |
| 2026-04-16 15:18 | 32.64661 | -16.69834 | 2047 ft | 193 kts | 236° |
| 2026-04-16 15:18 | 32.63999 | -16.71179 | 2003 ft | 192 kts | 253° |
| 2026-04-16 15:18 | 32.63576 | -16.72705 | 1995 ft | 193 kts | 256° |
| 2026-04-16 15:18 | 32.63157 | -16.74224 | 1998 ft | 197 kts | 255° |
| 2026-04-16 15:19 | 32.62713 | -16.75742 | 1929 ft | 190 kts | 249° |
| 2026-04-16 15:19 | 32.62151 | -16.77144 | 1584 ft | 189 kts | 246° |
| 2026-04-16 15:19 | 32.61561 | -16.78583 | 1505 ft | 197 kts | 246° |
| 2026-04-16 15:19 | 32.61263 | -16.80101 | 1499 ft | 190 kts | 278° |
| 2026-04-16 15:20 | 32.61742 | -16.81538 | 1502 ft | 185 kts | 305° |
| 2026-04-16 15:20 | 32.62608 | -16.82601 | 1500 ft | 177 kts | 338° |
| 2026-04-16 15:20 | 32.63669 | -16.82770 | 1503 ft | 137 kts | 9° |
| 2026-04-16 15:20 | 32.64554 | -16.82627 | 1475 ft | 123 kts | 16° |
| 2026-04-16 15:21 | 32.65365 | -16.82258 | 1296 ft | 126 kts | 30° |
| 2026-04-16 15:21 | 32.66055 | -16.81656 | 1089 ft | 123 kts | 41° |
| 2026-04-16 15:21 | 32.66673 | -16.80965 | 877 ft | 121 kts | 40° |
| 2026-04-16 15:21 | 32.67313 | -16.80318 | 663 ft | 121 kts | 43° |
| 2026-04-16 15:22 | 32.67900 | -16.79663 | 488 ft | 118 kts | 44° |
| 2026-04-16 15:22 | 32.68501 | -16.78945 | 353 ft | 121 kts | 41° |
| 2026-04-16 15:22 | 32.69096 | -16.78256 | 202 ft | 118 kts | 43° |
| 2026-04-16 15:22 | 32.69638 | -16.77632 | 180 ft | 100 kts | 42° |
| 2026-04-16 15:23 | 32.70207 | -16.76939 | 420 ft | 130 kts | 43° |
| 2026-04-16 15:23 | 32.70883 | -16.76135 | 969 ft | 150 kts | 44° |
| 2026-04-16 15:23 | 32.71682 | -16.75184 | 1542 ft | 174 kts | 41° |
| 2026-04-16 15:23 | 32.72708 | -16.74207 | 1898 ft | 196 kts | 37° |
| 2026-04-16 15:24 | 32.73534 | -16.73084 | 2542 ft | 179 kts | 65° |
| 2026-04-16 15:24 | 32.73628 | -16.71555 | 2940 ft | 193 kts | 96° |
| 2026-04-16 15:24 | 32.73187 | -16.70059 | 2690 ft | 194 kts | 116° |
| 2026-04-16 15:24 | 32.72524 | -16.68712 | 2485 ft | 182 kts | 116° |
| 2026-04-16 15:25 | 32.71861 | -16.67424 | 2498 ft | 185 kts | 116° |
| 2026-04-16 15:25 | 32.71169 | -16.66131 | 2500 ft | 185 kts | 120° |
| 2026-04-16 15:25 | 32.70356 | -16.64938 | 2515 ft | 189 kts | 126° |
| 2026-04-16 15:25 | 32.69268 | -16.63995 | 2814 ft | 201 kts | 158° |
| 2026-04-16 15:26 | 32.67890 | -16.63835 | 3050 ft | 201 kts | 176° |
| 2026-04-16 15:26 | 32.66501 | -16.63986 | 2983 ft | 201 kts | 199° |
| 2026-04-16 15:26 | 32.65356 | -16.64963 | 3001 ft | 204 kts | 225° |
| 2026-04-16 15:26 | 32.64345 | -16.66148 | 2996 ft | 203 kts | 218° |
| 2026-04-16 15:27 | 32.63078 | -16.66718 | 3001 ft | 199 kts | 178° |
| 2026-04-16 15:27 | 32.61770 | -16.66271 | 3000 ft | 192 kts | 140° |
| 2026-04-16 15:27 | 32.61035 | -16.65054 | 3002 ft | 181 kts | 100° |
| 2026-04-16 15:27 | 32.61155 | -16.63626 | 3003 ft | 173 kts | 60° |
| 2026-04-16 15:28 | 32.61910 | -16.62531 | 3007 ft | 174 kts | 46° |
| 2026-04-16 15:28 | 32.62901 | -16.61793 | 3005 ft | 172 kts | 13° |
| 2026-04-16 15:28 | 32.64107 | -16.61664 | 3000 ft | 176 kts | 6° |
| 2026-04-16 15:28 | 32.65316 | -16.61836 | 3007 ft | 178 kts | 347° |
| 2026-04-16 15:29 | 32.66493 | -16.62278 | 3002 ft | 178 kts | 346° |
| 2026-04-16 15:29 | 32.67676 | -16.62734 | 2998 ft | 179 kts | 344° |
| 2026-04-16 15:29 | 32.68648 | -16.63636 | 2825 ft | 185 kts | 306° |
| 2026-04-16 15:29 | 32.69048 | -16.65097 | 2440 ft | 189 kts | 282° |
| 2026-04-16 15:30 | 32.68961 | -16.66680 | 2163 ft | 194 kts | 265° |
| 2026-04-16 15:30 | 32.68444 | -16.68160 | 2107 ft | 202 kts | 233° |
| 2026-04-16 15:30 | 32.67487 | -16.69395 | 2102 ft | 203 kts | 226° |
| 2026-04-16 15:30 | 32.66500 | -16.70580 | 2094 ft | 197 kts | 226° |
| 2026-04-16 15:31 | 32.65591 | -16.71660 | 2094 ft | 177 kts | 226° |
| 2026-04-16 15:31 | 32.64731 | -16.72689 | 2102 ft | 176 kts | 226° |
| 2026-04-16 15:31 | 32.63858 | -16.73712 | 2110 ft | 179 kts | 226° |
| 2026-04-16 15:31 | 32.63008 | -16.74725 | 2084 ft | 163 kts | 232° |
| 2026-04-16 15:32 | 32.62685 | -16.75862 | 2102 ft | 137 kts | 275° |
| 2026-04-16 15:32 | 32.62737 | -16.77019 | 2081 ft | 143 kts | 283° |
| 2026-04-16 15:32 | 32.62868 | -16.78163 | 2005 ft | 136 kts | 285° |
| 2026-04-16 15:32 | 32.63024 | -16.79260 | 1740 ft | 137 kts | 285° |
| 2026-04-16 15:33 | 32.63211 | -16.80391 | 1424 ft | 139 kts | 287° |
| 2026-04-16 15:33 | 32.63730 | -16.81273 | 1087 ft | 131 kts | 339° |
| 2026-04-16 15:33 | 32.64581 | -16.81369 | 877 ft | 121 kts | 11° |
| 2026-04-16 15:33 | 32.65369 | -16.81119 | 895 ft | 122 kts | 21° |
| 2026-04-16 15:34 | 32.66165 | -16.80763 | 825 ft | 126 kts | 22° |
| 2026-04-16 15:34 | 32.66947 | -16.80405 | 727 ft | 120 kts | 26° |
| 2026-04-16 15:34 | 32.67654 | -16.79897 | 552 ft | 118 kts | 39° |
| 2026-04-16 15:34 | 32.68267 | -16.79216 | 406 ft | 120 kts | 42° |
| 2026-04-16 15:35 | 32.68859 | -16.78539 | 244 ft | 118 kts | 44° |
| 2026-04-16 15:35 | 32.69433 | -16.77855 | 178 ft | 109 kts | 42° |
| 2026-04-16 15:35 | 32.69899 | -16.77317 | 176 ft | 62 kts | 45° |
| 2026-04-16 15:35 | 32.69958 | -16.77217 | 176 ft | 8 kts | 98° |
| 2026-04-16 15:36 | 32.69902 | -16.77180 | 176 ft | 12 kts | 169° |
| 2026-04-16 15:36 | 32.69812 | -16.77208 | 176 ft | 16 kts | 221° |
| 2026-04-16 15:36 | 32.69733 | -16.77313 | 176 ft | 19 kts | 223° |
| 2026-04-16 15:36 | 32.69635 | -16.77429 | 176 ft | 19 kts | 226° |
| 2026-04-16 15:37 | 32.69535 | -16.77555 | 176 ft | 22 kts | 226° |
| 2026-04-16 15:37 | 32.69484 | -16.77619 | 176 ft | 1 kts | 226° |
| 2026-04-16 15:37 | 32.69458 | -16.77636 | 176 ft | 7 kts | 180° |
| 2026-04-16 15:37 | 32.69412 | -16.77593 | 176 ft | 1 kts | 137° |